createdAt,value
2017-05-25T00:02:20.824Z,94.40
2017-05-25T00:04:49.847Z,94.30
2017-05-25T00:07:19.116Z,94.20
2017-05-25T00:09:48.141Z,94.60
2017-05-25T00:12:17.027Z,94.40
2017-05-25T00:14:46.350Z,94.40
2017-05-25T00:17:15.341Z,94.60
2017-05-25T00:19:44.323Z,94.70
2017-05-25T00:22:13.643Z,94.80
2017-05-25T00:24:42.625Z,94.90
2017-05-25T00:27:11.628Z,95.00
2017-05-25T00:29:40.928Z,95.10
2017-05-25T00:32:09.890Z,95.10
2017-05-25T00:34:38.875Z,95.50
2017-05-25T00:37:08.108Z,95.10
2017-05-25T00:39:37.089Z,95.10
2017-05-25T00:42:06.076Z,95.20
2017-05-25T00:44:35.314Z,95.10
2017-05-25T00:47:04.273Z,95.10
2017-05-25T00:49:33.278Z,95.00
2017-05-25T00:52:02.503Z,94.90
2017-05-25T00:54:31.480Z,95.10
2017-05-25T00:57:00.433Z,94.90
2017-05-25T00:59:29.636Z,94.90
2017-05-25T01:01:58.613Z,94.70
2017-05-25T01:04:27.572Z,94.70
2017-05-25T01:06:56.777Z,94.70
2017-05-25T01:09:25.749Z,94.80
2017-05-25T01:11:54.727Z,94.80
2017-05-25T01:14:23.990Z,94.90
2017-05-25T01:16:52.982Z,94.60
2017-05-25T01:19:21.976Z,94.50
2017-05-25T01:21:51.207Z,94.60
2017-05-25T01:24:20.200Z,94.70
2017-05-25T01:26:49.188Z,94.60
2017-05-25T01:29:18.379Z,94.70
2017-05-25T01:31:47.340Z,94.60
2017-05-25T01:34:16.341Z,94.60
2017-05-25T01:36:45.560Z,94.60
2017-05-25T01:39:14.547Z,94.60
2017-05-25T01:41:43.521Z,94.60
2017-05-25T01:44:12.729Z,94.70
2017-05-25T01:46:41.701Z,94.80
2017-05-25T01:49:10.673Z,94.80
2017-05-25T01:51:39.897Z,94.80
2017-05-25T01:54:08.873Z,94.80
2017-05-25T01:56:37.873Z,94.80
2017-05-25T01:59:07.109Z,94.70
2017-05-25T02:01:36.081Z,94.50
2017-05-25T02:04:05.078Z,94.40
2017-05-25T02:06:34.385Z,94.40
2017-05-25T02:09:03.350Z,94.20
2017-05-25T02:11:32.322Z,94.20
2017-05-25T02:14:01.623Z,94.30
2017-05-25T02:16:30.597Z,94.30
2017-05-25T02:18:59.590Z,94.30
2017-05-25T02:21:28.909Z,94.40
2017-05-25T02:23:57.904Z,94.50
2017-05-25T02:26:26.866Z,94.60
2017-05-25T02:28:56.182Z,94.70
2017-05-25T02:31:25.162Z,94.80
2017-05-25T02:33:54.140Z,95.00
2017-05-25T02:36:23.472Z,95.00
2017-05-25T02:38:52.435Z,95.10
2017-05-25T02:41:21.434Z,95.10
2017-05-25T02:43:50.742Z,95.20
2017-05-25T02:46:19.701Z,95.20
2017-05-25T02:48:48.676Z,95.10
2017-05-25T02:51:18.265Z,95.00
2017-05-25T02:53:47.301Z,94.90
2017-05-25T02:56:16.305Z,94.90
2017-05-25T02:58:45.622Z,95.20
2017-05-25T03:01:14.607Z,95.20
2017-05-25T03:03:43.583Z,95.20
2017-05-25T03:06:12.927Z,95.00
2017-05-25T03:08:41.936Z,95.30
2017-05-25T03:11:10.907Z,95.10
2017-05-25T03:13:40.207Z,95.00
2017-05-25T03:16:09.185Z,94.80
2017-05-25T03:18:38.145Z,94.60
2017-05-25T03:21:07.402Z,94.40
2017-05-25T03:23:35.856Z,94.40
2017-05-25T03:26:04.823Z,94.10
2017-05-25T03:28:34.139Z,94.00
2017-05-25T03:31:03.116Z,94.00
2017-05-25T03:33:32.142Z,94.00
2017-05-25T03:36:01.403Z,94.00
2017-05-25T03:38:30.411Z,93.90
2017-05-25T03:40:59.391Z,93.80
2017-05-25T03:43:28.758Z,93.80
2017-05-25T03:45:57.731Z,93.80
2017-05-25T03:48:26.767Z,93.80
2017-05-25T03:50:56.068Z,93.80
2017-05-25T03:53:25.041Z,93.90
2017-05-25T03:55:54.087Z,94.00
2017-05-25T03:58:23.341Z,94.10
2017-05-25T04:00:52.307Z,94.30
2017-05-25T04:03:21.267Z,94.50
2017-05-25T04:05:50.510Z,94.60
2017-05-25T04:08:19.483Z,94.70
2017-05-25T04:10:48.483Z,94.80
2017-05-25T04:13:17.749Z,94.80
2017-05-25T04:15:46.743Z,94.80
2017-05-25T04:18:15.719Z,95.10
2017-05-25T04:20:44.980Z,94.80
2017-05-25T04:23:13.970Z,94.70
2017-05-25T04:25:42.942Z,94.80
2017-05-25T04:28:12.265Z,94.70
2017-05-25T04:30:41.246Z,94.70
2017-05-25T04:33:10.241Z,94.70
2017-05-25T04:35:39.533Z,94.70
2017-05-25T04:38:07.738Z,94.70
2017-05-25T04:40:36.734Z,94.80
2017-05-25T04:43:05.288Z,94.80
2017-05-25T04:45:44.591Z,94.80
2017-05-25T04:48:13.944Z,94.80
2017-05-25T04:50:42.921Z,94.80
2017-05-25T04:53:11.909Z,94.90
2017-05-25T04:55:41.116Z,95.00
2017-05-25T04:58:10.101Z,94.80
2017-05-25T05:00:39.089Z,94.80
2017-05-25T05:03:08.377Z,94.70
2017-05-25T05:05:37.381Z,94.70
2017-05-25T05:08:06.362Z,94.50
2017-05-25T05:10:35.571Z,94.40
2017-05-25T05:13:04.594Z,94.60
2017-05-25T05:15:33.578Z,94.20
2017-05-25T05:18:02.784Z,94.00
2017-05-25T05:20:31.813Z,94.10
2017-05-25T05:23:00.804Z,94.00
2017-05-25T05:25:29.788Z,94.20
2017-05-25T05:27:58.762Z,93.30
2017-05-25T05:30:27.752Z,92.90
2017-05-25T05:32:56.732Z,92.70
2017-05-25T05:35:25.723Z,92.70
2017-05-25T05:37:54.701Z,91.60
2017-05-25T05:40:23.701Z,91.30
2017-05-25T05:42:52.656Z,90.90
2017-05-25T05:45:21.669Z,90.70
2017-05-25T05:47:50.653Z,90.50
2017-05-25T05:50:19.659Z,90.20
2017-05-25T05:52:48.653Z,89.90
2017-05-25T05:55:17.648Z,88.80
2017-05-25T05:57:46.686Z,88.60
2017-05-25T06:00:15.694Z,88.00
2017-05-25T06:02:44.611Z,87.50
2017-05-25T06:05:13.625Z,86.80
2017-05-25T06:07:42.604Z,86.90
2017-05-25T06:10:11.602Z,86.10
2017-05-25T06:12:40.570Z,85.40
2017-05-25T06:15:09.583Z,85.20
2017-05-25T06:17:38.559Z,84.20
2017-05-25T06:20:07.553Z,85.40
2017-05-25T06:22:36.568Z,85.90
2017-05-25T06:25:05.574Z,86.30
2017-05-25T06:27:33.779Z,86.20
2017-05-25T06:30:02.783Z,86.20
2017-05-25T06:32:31.755Z,86.10
2017-05-25T06:35:00.748Z,86.80
2017-05-25T06:37:29.699Z,87.10
2017-05-25T06:39:58.581Z,86.90
2017-05-25T06:42:27.601Z,86.10
2017-05-25T06:44:56.595Z,86.20
2017-05-25T06:50:26.161Z,85.70
2017-05-25T06:52:55.138Z,86.50
2017-05-25T06:55:24.407Z,85.70
2017-05-25T06:57:53.381Z,85.10
2017-05-25T07:00:22.439Z,84.70
2017-05-25T07:02:51.453Z,84.50
2017-05-25T07:05:20.371Z,84.70
2017-05-25T07:07:49.366Z,84.30
2017-05-25T07:10:18.339Z,83.80
2017-05-25T07:12:47.320Z,84.00
2017-05-25T07:15:16.321Z,83.00
2017-05-25T07:17:45.309Z,81.70
2017-05-25T07:20:14.304Z,81.40
2017-05-25T07:22:43.293Z,81.40
2017-05-25T07:25:12.263Z,81.50
2017-05-25T07:27:41.261Z,81.60
2017-05-25T07:30:10.289Z,80.70
2017-05-25T07:32:38.604Z,80.70
2017-05-25T07:35:07.573Z,78.40
2017-05-25T07:37:36.574Z,77.40
2017-05-25T07:40:05.605Z,77.00
2017-05-25T07:42:34.560Z,76.30
2017-05-25T07:45:02.804Z,76.20
2017-05-25T07:47:31.813Z,76.00
2017-05-25T07:50:00.793Z,75.90
2017-05-25T07:52:29.810Z,75.30
2017-05-25T07:54:58.799Z,72.30
2017-05-25T07:57:27.807Z,73.40
2017-05-25T07:59:56.790Z,74.50
2017-05-25T08:02:25.770Z,73.90
2017-05-25T08:04:54.741Z,74.10
2017-05-25T08:07:23.014Z,74.60
2017-05-25T08:09:51.994Z,75.10
2017-05-25T08:12:20.996Z,75.70
2017-05-25T08:14:49.974Z,75.20
2017-05-25T08:17:19.033Z,74.90
2017-05-25T08:19:48.023Z,74.60
2017-05-25T08:22:17.031Z,73.70
2017-05-25T08:24:46.037Z,74.00
2017-05-25T08:27:15.045Z,74.60
2017-05-25T08:29:44.031Z,74.70
2017-05-25T08:32:13.020Z,74.60
2017-05-25T08:34:42.036Z,74.50
2017-05-25T08:37:11.017Z,73.60
2017-05-25T08:39:39.985Z,71.80
2017-05-25T08:42:09.029Z,70.80
2017-05-25T08:44:38.022Z,71.80
2017-05-25T08:47:06.915Z,72.20
2017-05-25T08:49:35.933Z,71.40
2017-05-25T08:52:04.939Z,71.60
2017-05-25T08:54:33.910Z,71.90
2017-05-25T08:57:02.890Z,71.90
2017-05-25T08:59:31.801Z,70.80
2017-05-25T09:02:01.221Z,71.10
2017-05-25T09:04:30.212Z,70.90
2017-05-25T09:06:59.170Z,71.00
2017-05-25T09:09:28.642Z,69.90
2017-05-25T09:11:57.622Z,70.60
2017-05-25T09:14:26.537Z,70.40
2017-05-25T09:16:55.564Z,69.70
2017-05-25T09:19:24.562Z,67.10
2017-05-25T09:21:53.545Z,66.60
2017-05-25T09:24:22.623Z,65.40
2017-05-25T09:26:51.595Z,65.00
2017-05-25T09:29:20.598Z,65.30
2017-05-25T09:31:49.581Z,66.70
2017-05-25T09:34:18.603Z,66.70
2017-05-25T09:36:47.588Z,66.10
2017-05-25T09:39:16.950Z,66.30
2017-05-25T09:41:45.197Z,66.30
2017-05-25T09:44:14.168Z,67.60
2017-05-25T09:46:43.142Z,65.40
2017-05-25T09:49:12.137Z,65.30
2017-05-25T09:51:41.102Z,64.30
2017-05-25T09:54:10.075Z,63.20
2017-05-25T09:56:45.406Z,62.80
2017-05-25T09:59:14.304Z,60.90
2017-05-25T10:01:43.329Z,58.90
2017-05-25T10:04:12.300Z,57.80
2017-05-25T10:06:41.275Z,58.10
2017-05-25T10:09:10.337Z,59.10
2017-05-25T10:11:39.344Z,58.50
2017-05-25T10:14:08.311Z,58.60
2017-05-25T10:16:37.308Z,59.00
2017-05-25T10:19:06.284Z,57.80
2017-05-25T10:21:35.629Z,56.90
2017-05-25T10:24:04.613Z,57.00
2017-05-25T10:26:33.580Z,55.40
2017-05-25T10:29:02.614Z,54.70
2017-05-25T10:31:31.590Z,53.80
2017-05-25T10:33:59.801Z,53.70
2017-05-25T10:36:28.792Z,52.40
2017-05-25T10:38:58.137Z,52.20
2017-05-25T10:41:27.126Z,52.70
2017-05-25T10:43:56.103Z,52.30
2017-05-25T10:46:25.103Z,51.60
2017-05-25T10:48:54.056Z,52.40
2017-05-25T10:51:23.064Z,53.80
2017-05-25T10:53:52.024Z,54.20
2017-05-25T10:56:21.001Z,52.30
2017-05-25T10:58:50.007Z,49.20
2017-05-25T11:01:19.019Z,48.80
2017-05-25T11:03:47.970Z,48.60
2017-05-25T11:06:16.970Z,50.00
2017-05-25T11:08:45.947Z,50.10
2017-05-25T11:11:15.169Z,49.70
2017-05-25T11:13:44.168Z,51.20
2017-05-25T11:16:13.149Z,51.50
2017-05-25T11:18:42.113Z,51.60
2017-05-25T11:21:11.115Z,52.90
2017-05-25T11:23:40.107Z,52.70
2017-05-25T11:26:09.134Z,51.10
2017-05-25T11:28:38.096Z,51.10
2017-05-25T11:31:06.319Z,51.10
2017-05-25T11:33:35.309Z,47.80
2017-05-25T11:36:04.376Z,47.40
2017-05-25T11:38:33.360Z,46.90
2017-05-25T11:41:02.355Z,46.80
2017-05-25T11:43:31.319Z,48.00
2017-05-25T11:45:59.552Z,48.00
2017-05-25T11:48:28.526Z,48.60
2017-05-25T11:50:57.608Z,49.60
2017-05-25T11:53:26.582Z,50.00
2017-05-25T11:55:55.566Z,49.70
2017-05-25T11:58:24.709Z,48.70
2017-05-25T12:00:53.740Z,48.70
2017-05-25T12:03:22.705Z,48.30
2017-05-25T12:05:51.754Z,47.60
2017-05-25T12:08:20.633Z,46.20
2017-05-25T12:10:49.663Z,44.10
2017-05-25T12:13:18.639Z,43.80
2017-05-25T12:15:47.675Z,43.20
2017-05-25T12:18:16.679Z,43.70
2017-05-25T12:20:45.652Z,44.50
2017-05-25T12:23:14.621Z,43.70
2017-05-25T12:25:43.612Z,44.90
2017-05-25T12:28:12.598Z,46.10
2017-05-25T12:30:41.580Z,47.10
2017-05-25T12:33:10.551Z,47.40
2017-05-25T12:35:39.510Z,48.30
2017-05-25T12:38:08.511Z,48.50
2017-05-25T12:40:37.483Z,50.00
2017-05-25T12:43:06.566Z,50.70
2017-05-25T12:45:35.561Z,51.50
2017-05-25T12:48:04.578Z,52.00
2017-05-25T12:50:33.541Z,51.60
2017-05-25T12:53:02.547Z,51.30
2017-05-25T12:55:31.422Z,51.80
2017-05-25T12:58:00.449Z,49.30
2017-05-25T13:00:29.413Z,48.10
2017-05-25T13:02:58.404Z,46.00
2017-05-25T13:05:27.364Z,44.40
2017-05-25T13:07:56.536Z,45.20
2017-05-25T13:10:25.523Z,46.70
2017-05-25T13:12:54.523Z,47.40
2017-05-25T13:15:23.518Z,49.10
2017-05-25T13:17:52.594Z,49.80
2017-05-25T13:20:21.543Z,48.50
2017-05-25T13:22:50.560Z,44.90
2017-05-25T13:25:19.513Z,42.80
2017-05-25T13:27:47.730Z,42.80
2017-05-25T13:30:16.711Z,40.30
2017-05-25T13:32:45.698Z,38.90
2017-05-25T13:35:14.657Z,39.10
2017-05-25T13:37:43.660Z,37.10
2017-05-25T13:40:12.666Z,35.30
2017-05-25T13:42:41.651Z,35.80
2017-05-25T13:45:10.622Z,37.60
2017-05-25T13:47:39.614Z,39.60
2017-05-25T13:50:08.622Z,40.50
2017-05-25T13:52:37.630Z,41.30
2017-05-25T13:55:06.600Z,40.70
2017-05-25T13:57:35.632Z,40.00
2017-05-25T14:00:04.651Z,39.10
2017-05-25T14:02:33.681Z,36.70
2017-05-25T14:05:02.681Z,36.40
2017-05-25T14:07:31.679Z,35.60
2017-05-25T14:10:00.668Z,35.50
2017-05-25T14:12:29.662Z,35.50
2017-05-25T14:14:58.622Z,35.50
2017-05-25T14:17:27.614Z,34.30
2017-05-25T14:19:56.591Z,34.50
2017-05-25T14:22:25.604Z,36.10
2017-05-25T14:24:54.571Z,35.70
2017-05-25T14:27:23.563Z,36.70
2017-05-25T14:29:52.519Z,37.40
2017-05-25T14:32:21.515Z,39.00
2017-05-25T14:34:50.493Z,40.10
2017-05-25T14:37:19.524Z,41.00
2017-05-25T14:39:48.585Z,41.80
2017-05-25T14:42:17.823Z,43.00
2017-05-25T14:44:46.801Z,43.30
2017-05-25T14:47:15.769Z,43.00
2017-05-25T14:49:44.783Z,42.30
2017-05-25T14:52:14.026Z,42.10
2017-05-25T14:54:43.096Z,42.20
2017-05-25T14:57:12.157Z,42.10
2017-05-25T14:59:41.147Z,43.30
2017-05-25T15:02:10.134Z,43.80
2017-05-25T15:04:39.173Z,44.40
2017-05-25T15:07:08.129Z,44.30
2017-05-25T15:09:37.113Z,44.20
2017-05-25T15:12:06.077Z,44.10
2017-05-25T15:14:35.071Z,42.90
2017-05-25T15:17:04.071Z,43.10
2017-05-25T15:19:33.091Z,43.50
2017-05-25T15:22:02.052Z,43.90
2017-05-25T15:24:31.306Z,43.70
2017-05-25T15:27:00.265Z,43.70
2017-05-25T15:29:29.234Z,44.80
2017-05-25T15:32:08.105Z,44.20
2017-05-25T15:34:37.068Z,44.60
2017-05-25T15:37:06.028Z,45.20
2017-05-25T15:39:35.302Z,45.30
2017-05-25T15:42:04.309Z,45.50
2017-05-25T15:44:33.354Z,45.40
2017-05-25T15:47:02.556Z,45.20
2017-05-25T15:49:31.583Z,45.40
2017-05-25T15:52:00.544Z,45.30
2017-05-25T15:54:29.835Z,44.80
2017-05-25T15:56:58.861Z,43.40
2017-05-25T15:59:27.822Z,42.80
2017-05-25T16:01:57.121Z,41.70
2017-05-25T16:04:25.330Z,41.60
2017-05-25T16:06:54.296Z,38.40
2017-05-25T16:09:23.588Z,37.80
2017-05-25T16:11:52.563Z,37.30
2017-05-25T16:14:21.536Z,36.70
2017-05-25T16:16:50.862Z,36.80
2017-05-25T16:19:19.889Z,37.00
2017-05-25T16:21:48.867Z,37.50
2017-05-25T16:24:18.155Z,37.60
2017-05-25T16:26:47.133Z,38.90
2017-05-25T16:29:16.152Z,39.90
2017-05-25T16:31:45.543Z,40.50
2017-05-25T16:34:14.533Z,41.50
2017-05-25T16:36:43.527Z,42.10
2017-05-25T16:39:12.824Z,42.90
2017-05-25T16:41:42.038Z,43.90
2017-05-25T16:44:11.200Z,43.00
2017-05-25T16:46:40.432Z,42.90
2017-05-25T16:49:09.441Z,42.90
2017-05-25T16:51:37.643Z,42.90
2017-05-25T16:54:06.883Z,42.20
2017-05-25T16:56:35.858Z,42.70
2017-05-25T16:59:04.828Z,42.70
2017-05-25T17:01:34.131Z,43.00
2017-05-25T17:04:03.110Z,43.50
2017-05-25T17:06:32.047Z,44.20
2017-05-25T17:09:01.316Z,45.10
2017-05-25T17:11:30.277Z,45.80
2017-05-25T17:13:59.292Z,47.10
2017-05-25T17:16:28.599Z,47.80
2017-05-25T17:18:57.566Z,48.40
2017-05-25T17:21:26.534Z,48.60
2017-05-25T17:23:55.888Z,48.90
2017-05-25T17:26:24.853Z,49.60
2017-05-25T17:28:53.841Z,50.10
2017-05-25T17:31:23.155Z,50.10
2017-05-25T17:33:52.147Z,50.20
2017-05-25T17:36:21.119Z,50.40
2017-05-25T17:38:50.342Z,50.70
2017-05-25T17:41:18.546Z,50.70
2017-05-25T17:43:47.514Z,51.10
2017-05-25T17:46:16.737Z,51.30
2017-05-25T17:48:45.735Z,51.20
2017-05-25T17:51:14.742Z,51.50
2017-05-25T17:53:43.985Z,51.20
2017-05-25T17:56:12.950Z,51.00
2017-05-25T17:58:41.940Z,51.10
2017-05-25T18:01:12.270Z,51.60
2017-05-25T18:03:40.471Z,51.60
2017-05-25T18:06:08.673Z,52.10
2017-05-25T18:08:37.920Z,52.70
2017-05-25T18:11:06.945Z,53.10
2017-05-25T18:13:35.915Z,53.20
2017-05-25T18:16:05.118Z,53.90
2017-05-25T18:18:34.090Z,54.40
2017-05-25T18:21:03.053Z,55.30
2017-05-25T18:23:32.315Z,56.30
2017-05-25T18:26:01.283Z,57.10
2017-05-25T18:28:30.330Z,57.60
2017-05-25T18:30:59.584Z,57.50
2017-05-25T18:33:28.633Z,57.30
2017-05-25T18:35:57.632Z,57.60
2017-05-25T18:38:26.870Z,58.50
2017-05-25T18:40:55.840Z,59.90
2017-05-25T18:43:25.385Z,61.70
2017-05-25T18:45:54.639Z,63.50
2017-05-25T18:48:23.621Z,63.50
2017-05-25T18:50:52.624Z,63.30
2017-05-25T18:53:21.843Z,63.80
2017-05-25T18:55:50.844Z,64.80
2017-05-25T18:58:19.865Z,65.30
2017-05-25T19:00:49.141Z,65.40
2017-05-25T19:03:18.154Z,65.60
2017-05-25T19:05:47.155Z,65.00
2017-05-25T19:08:16.387Z,64.70
2017-05-25T19:10:45.353Z,65.20
2017-05-25T19:13:14.340Z,66.00
2017-05-25T19:15:43.566Z,66.40
2017-05-25T19:18:12.567Z,67.70
2017-05-25T19:20:41.565Z,68.10
2017-05-25T19:23:10.945Z,68.00
2017-05-25T19:25:39.961Z,68.90
2017-05-25T19:28:08.942Z,69.70
2017-05-25T19:30:38.225Z,70.40
2017-05-25T19:33:07.235Z,70.90
2017-05-25T19:35:36.216Z,70.70
2017-05-25T19:38:05.358Z,70.70
2017-05-25T19:40:34.391Z,70.90
2017-05-25T19:43:02.589Z,70.90
2017-05-25T19:45:31.865Z,71.10
2017-05-25T19:48:00.852Z,71.40
2017-05-25T19:50:30.156Z,71.50
2017-05-25T19:52:59.386Z,71.90
2017-05-25T19:55:28.906Z,72.30
2017-05-25T19:57:57.919Z,73.30
2017-05-25T20:00:27.237Z,73.60
2017-05-25T20:02:56.270Z,73.50
2017-05-25T20:05:25.359Z,73.60
2017-05-25T20:07:54.711Z,73.60
2017-05-25T20:10:23.673Z,73.50
2017-05-25T20:12:52.730Z,73.50
2017-05-25T20:15:22.115Z,73.70
2017-05-25T20:17:51.078Z,73.90
2017-05-25T20:20:20.012Z,74.20
2017-05-25T20:22:49.294Z,74.30
2017-05-25T20:25:18.268Z,74.50
2017-05-25T20:27:47.289Z,75.00
2017-05-25T20:30:16.589Z,75.40
2017-05-25T20:32:45.582Z,75.80
2017-05-25T20:35:14.558Z,75.90
2017-05-25T20:37:43.770Z,76.20
2017-05-25T20:40:12.754Z,76.60
2017-05-25T20:42:41.738Z,76.90
2017-05-25T20:45:11.021Z,77.10
2017-05-25T20:47:40.009Z,77.10
2017-05-25T20:50:09.012Z,76.40
2017-05-25T20:52:38.247Z,76.10
2017-05-25T20:55:07.230Z,76.50
2017-05-25T20:57:36.529Z,76.20
2017-05-25T21:00:06.333Z,76.50
2017-05-25T21:02:35.335Z,76.80
2017-05-25T21:05:04.238Z,76.70
2017-05-25T21:07:33.570Z,76.40
2017-05-25T21:10:02.544Z,76.30
2017-05-25T21:12:31.446Z,76.60
2017-05-25T21:15:00.671Z,76.80
2017-05-25T21:17:29.674Z,76.90
2017-05-25T21:19:58.652Z,76.90
2017-05-25T21:22:27.952Z,77.40
2017-05-25T21:24:56.924Z,78.20
2017-05-25T21:27:25.890Z,79.00
2017-05-25T21:29:55.131Z,79.70
2017-05-25T21:32:24.140Z,80.30
2017-05-25T21:34:53.155Z,80.80
2017-05-25T21:37:22.405Z,81.50
2017-05-25T21:39:51.403Z,82.10
2017-05-25T21:42:19.587Z,82.10
2017-05-25T21:44:48.855Z,83.40
2017-05-25T21:47:17.837Z,83.90
2017-05-25T21:49:46.801Z,84.40
2017-05-25T21:52:16.171Z,84.70
2017-05-25T21:54:45.151Z,85.00
2017-05-25T21:57:14.155Z,85.30
2017-05-25T21:59:43.564Z,85.70
2017-05-25T22:02:12.536Z,86.00
2017-05-25T22:04:41.552Z,86.20
2017-05-25T22:07:10.766Z,86.40
2017-05-25T22:09:39.769Z,86.50
2017-05-25T22:12:08.758Z,86.90
2017-05-25T22:14:37.960Z,87.20
2017-05-25T22:17:06.944Z,87.30
2017-05-25T22:19:35.926Z,87.60
2017-05-25T22:22:05.271Z,87.60
2017-05-25T22:24:34.270Z,87.80
2017-05-25T22:27:03.253Z,88.10
2017-05-25T22:29:32.544Z,88.20
2017-05-25T22:32:01.528Z,88.40
2017-05-25T22:34:30.552Z,88.40
2017-05-25T22:36:59.826Z,88.60
2017-05-25T22:39:28.807Z,88.80
2017-05-25T22:41:57.778Z,88.80
2017-05-25T22:44:27.027Z,89.00
2017-05-25T22:46:56.019Z,89.40
2017-05-25T22:49:24.993Z,90.00
2017-05-25T22:51:54.206Z,90.20
2017-05-25T22:54:23.173Z,90.40
2017-05-25T22:56:52.193Z,90.40
2017-05-25T22:59:21.547Z,90.50
2017-05-25T23:01:50.518Z,90.50
2017-05-25T23:04:19.493Z,90.60
2017-05-25T23:06:48.749Z,90.70
2017-05-25T23:09:17.736Z,90.70
2017-05-25T23:11:46.728Z,90.70
2017-05-25T23:14:15.930Z,90.50
2017-05-25T23:16:44.901Z,90.50
2017-05-25T23:19:13.893Z,90.60
2017-05-25T23:21:43.291Z,90.60
2017-05-25T23:24:12.256Z,90.70
2017-05-25T23:26:41.238Z,90.70
2017-05-25T23:29:10.582Z,90.70
2017-05-25T23:31:39.544Z,90.80
2017-05-25T23:34:08.544Z,90.90
2017-05-25T23:36:37.863Z,91.00
2017-05-25T23:39:06.882Z,91.20
2017-05-25T23:41:35.842Z,91.30
2017-05-25T23:44:05.130Z,91.50
2017-05-25T23:46:34.121Z,91.50
2017-05-25T23:49:03.086Z,91.80
2017-05-25T23:51:53.316Z,91.50
2017-05-25T23:54:22.301Z,91.50
2017-05-25T23:56:51.615Z,91.60
2017-05-25T23:59:20.581Z,91.60
